Rosa Maersk — OVST2 — position and weather

sailwx.info

Track history (hours):
 
Tides and Currents Weather Stations Pressure Air Temp Water Temp Dewpoint Dewpoint Depression Visibility Wind Speed Wind Dir Waves Ship Positions

Rosa Maersk

Last reported at 2014-Nov-22 19:33 UTC. Time now 2014-Nov-24 06:49 UTC.
Position N 41°29' E 029°34'.

Length 172 m; draft 7.1 m.

Type: Ship. MMSI: 220288000.

Date/timePositionNaut miles runAvg speedWind from/ knotsBaromVisibWave heightAir tempDewpointWater temp
2014-Nov-22 19:33N 41°29' E 029°34'8 7.7
2014-Nov-22 18:34N 41°25' E 029°26'7 7.2
2014-Nov-22 17:33N 41°20' E 029°19'7 6.9
2014-Nov-22 16:33N 41°16' E 029°12'18 8.9
2014-Nov-22 14:33N 41°00' E 028°60'8 7.7
2014-Nov-22 13:33N 40°54' E 028°53'2 0.2
2014-Nov-22 02:06N 40°56' E 028°51'0 0.0
2014-Nov-22 00:06N 40°56' E 028°51'0 0.0
2014-Nov-21 15:15N 40°56' E 028°51'5 7.6
2014-Nov-21 14:33N 40°56' E 028°58'1110.8
2014-Nov-21 13:33N 40°48' E 029°06'7 6.8
2014-Nov-21 12:33N 40°51' E 029°14'8 8.3
2014-Nov-21 11:33N 40°46' E 029°05'4 3.9
2014-Nov-21 10:33N 40°44' E 029°09'1 1.4
2014-Nov-21 09:33N 40°45' E 029°10'  
2014-Nov-13 01:23N 40°50' E 029°16'0 0.0
2014-Nov-13 00:29N 40°50' E 029°16'0 0.0
2014-Nov-12 23:29N 40°50' E 029°16'0 0.0
2014-Nov-12 22:29N 40°50' E 029°16'0 0.0
2014-Nov-12 21:29N 40°50' E 029°16'0 0.0
2014-Nov-12 20:23N 40°50' E 029°16'  
Track history (hours):
 
Tides and Currents Weather Stations Pressure Air Temp Water Temp Dewpoint Dewpoint Depression Visibility Wind Speed Wind Dir Waves Ship Positions

Rosa Maersk

Last reported at 2014-Nov-22 19:33 UTC. Time now 2014-Nov-24 06:49 UTC.
Position N 41°29' E 029°34'.

Length 172 m; draft 7.1 m.

Type: Ship. MMSI: 220288000.

Date/timePositionNaut miles runAvg speedWind from/ knotsBaromVisibWave heightAir tempDewpointWater temp
2014-Nov-22 19:33N 41°29' E 029°34'8 7.7
2014-Nov-22 18:34N 41°25' E 029°26'7 7.2
2014-Nov-22 17:33N 41°20' E 029°19'7 6.9
2014-Nov-22 16:33N 41°16' E 029°12'18 8.9
2014-Nov-22 14:33N 41°00' E 028°60'8 7.7
2014-Nov-22 13:33N 40°54' E 028°53'2 0.2
2014-Nov-22 02:06N 40°56' E 028°51'0 0.0
2014-Nov-22 00:06N 40°56' E 028°51'0 0.0
2014-Nov-21 15:15N 40°56' E 028°51'5 7.6
2014-Nov-21 14:33N 40°56' E 028°58'1110.8
2014-Nov-21 13:33N 40°48' E 029°06'7 6.8
2014-Nov-21 12:33N 40°51' E 029°14'8 8.3
2014-Nov-21 11:33N 40°46' E 029°05'4 3.9
2014-Nov-21 10:33N 40°44' E 029°09'1 1.4
2014-Nov-21 09:33N 40°45' E 029°10'  
2014-Nov-13 01:23N 40°50' E 029°16'0 0.0
2014-Nov-13 00:29N 40°50' E 029°16'0 0.0
2014-Nov-12 23:29N 40°50' E 029°16'0 0.0
2014-Nov-12 22:29N 40°50' E 029°16'0 0.0
2014-Nov-12 21:29N 40°50' E 029°16'0 0.0
2014-Nov-12 20:23N 40°50' E 029°16'  

Dump ship's entire track history